sensor_id;sensor_type;location;lat;lon;timestamp;P1;durP1;ratioP1;P2;durP2;ratioP2
8001;SDS011;4046;48.774;8.732;2023-04-01T00:00:58;1.33;;;0.80;;
8001;SDS011;4046;48.774;8.732;2023-04-01T00:03:25;1.17;;;0.70;;
8001;SDS011;4046;48.774;8.732;2023-04-01T00:05:55;1.10;;;0.70;;
8001;SDS011;4046;48.774;8.732;2023-04-01T00:08:23;1.23;;;0.70;;
8001;SDS011;4046;48.774;8.732;2023-04-01T00:10:50;1.40;;;0.80;;
8001;SDS011;4046;48.774;8.732;2023-04-01T00:13:17;1.20;;;0.70;;
8001;SDS011;4046;48.774;8.732;2023-04-01T00:15:44;1.83;;;0.70;;
8001;SDS011;4046;48.774;8.732;2023-04-01T00:18:11;1.70;;;0.93;;
8001;SDS011;4046;48.774;8.732;2023-04-01T00:20:37;1.20;;;0.70;;
8001;SDS011;4046;48.774;8.732;2023-04-01T00:23:03;1.20;;;0.70;;
8001;SDS011;4046;48.774;8.732;2023-04-01T00:25:30;1.30;;;0.80;;
8001;SDS011;4046;48.774;8.732;2023-04-01T00:27:57;1.20;;;0.77;;
8001;SDS011;4046;48.774;8.732;2023-04-01T00:30:23;1.20;;;0.63;;
8001;SDS011;4046;48.774;8.732;2023-04-01T00:32:52;1.20;;;0.63;;
8001;SDS011;4046;48.774;8.732;2023-04-01T00:35:19;1.43;;;0.80;;
8001;SDS011;4046;48.774;8.732;2023-04-01T00:37:45;1.20;;;0.70;;
8001;SDS011;4046;48.774;8.732;2023-04-01T00:40:26;1.20;;;0.77;;
8001;SDS011;4046;48.774;8.732;2023-04-01T00:42:55;1.50;;;0.87;;
8001;SDS011;4046;48.774;8.732;2023-04-01T00:45:26;1.40;;;0.70;;
8001;SDS011;4046;48.774;8.732;2023-04-01T00:47:53;1.20;;;0.80;;
8001;SDS011;4046;48.774;8.732;2023-04-01T00:50:21;1.10;;;0.60;;
8001;SDS011;4046;48.774;8.732;2023-04-01T00:52:50;1.30;;;0.70;;
8001;SDS011;4046;48.774;8.732;2023-04-01T00:55:16;1.20;;;0.80;;
8001;SDS011;4046;48.774;8.732;2023-04-01T00:57:45;1.33;;;0.80;;
8001;SDS011;4046;48.774;8.732;2023-04-01T01:00:14;1.10;;;0.60;;
8001;SDS011;4046;48.774;8.732;2023-04-01T01:02:41;1.40;;;0.70;;
8001;SDS011;4046;48.774;8.732;2023-04-01T01:05:16;1.10;;;0.70;;
8001;SDS011;4046;48.774;8.732;2023-04-01T01:10:18;1.40;;;0.70;;
8001;SDS011;4046;48.774;8.732;2023-04-01T01:16:34;1.80;;;0.60;;
8001;SDS011;4046;48.774;8.732;2023-04-01T01:18:53;1.10;;;0.63;;
8001;SDS011;4046;48.774;8.732;2023-04-01T01:21:43;1.20;;;0.70;;
8001;SDS011;4046;48.774;8.732;2023-04-01T01:24:25;1.50;;;0.70;;
8001;SDS011;4046;48.774;8.732;2023-04-01T01:26:56;1.50;;;0.70;;
8001;SDS011;4046;48.774;8.732;2023-04-01T01:29:54;1.30;;;0.70;;
8001;SDS011;4046;48.774;8.732;2023-04-01T01:38:04;1.20;;;0.60;;
8001;SDS011;4046;48.774;8.732;2023-04-01T01:40:34;1.20;;;0.60;;
8001;SDS011;4046;48.774;8.732;2023-04-01T01:43:03;1.10;;;0.70;;
8001;SDS011;4046;48.774;8.732;2023-04-01T01:45:34;1.10;;;0.60;;
8001;SDS011;4046;48.774;8.732;2023-04-01T01:48:04;1.20;;;0.60;;
8001;SDS011;4046;48.774;8.732;2023-04-01T01:50:32;1.10;;;0.70;;
8001;SDS011;4046;48.774;8.732;2023-04-01T01:53:02;1.20;;;0.60;;
8001;SDS011;4046;48.774;8.732;2023-04-01T01:55:36;2.07;;;0.83;;
8001;SDS011;4046;48.774;8.732;2023-04-01T02:00:44;1.20;;;0.63;;
8001;SDS011;4046;48.774;8.732;2023-04-01T02:03:14;1.20;;;0.80;;
8001;SDS011;4046;48.774;8.732;2023-04-01T02:05:42;1.20;;;0.70;;
8001;SDS011;4046;48.774;8.732;2023-04-01T02:08:14;1.17;;;0.63;;
8001;SDS011;4046;48.774;8.732;2023-04-01T02:10:45;1.10;;;0.50;;
8001;SDS011;4046;48.774;8.732;2023-04-01T02:13:24;1.10;;;0.50;;
8001;SDS011;4046;48.774;8.732;2023-04-01T02:16:08;1.20;;;0.70;;
8001;SDS011;4046;48.774;8.732;2023-04-01T02:18:55;1.10;;;0.50;;
8001;SDS011;4046;48.774;8.732;2023-04-01T02:21:24;1.20;;;0.60;;
8001;SDS011;4046;48.774;8.732;2023-04-01T02:23:54;1.63;;;0.70;;
8001;SDS011;4046;48.774;8.732;2023-04-01T02:26:23;1.10;;;0.57;;
8001;SDS011;4046;48.774;8.732;2023-04-01T02:28:51;1.20;;;0.60;;
8001;SDS011;4046;48.774;8.732;2023-04-01T02:31:19;1.30;;;0.70;;
8001;SDS011;4046;48.774;8.732;2023-04-01T02:33:46;1.10;;;0.60;;
8001;SDS011;4046;48.774;8.732;2023-04-01T02:36:13;1.13;;;0.60;;
8001;SDS011;4046;48.774;8.732;2023-04-01T02:38:41;1.27;;;0.70;;
8001;SDS011;4046;48.774;8.732;2023-04-01T02:41:10;1.10;;;0.70;;
8001;SDS011;4046;48.774;8.732;2023-04-01T02:43:36;1.10;;;0.70;;
8001;SDS011;4046;48.774;8.732;2023-04-01T02:46:02;1.20;;;0.60;;
8001;SDS011;4046;48.774;8.732;2023-04-01T02:48:29;1.10;;;0.63;;
8001;SDS011;4046;48.774;8.732;2023-04-01T02:50:55;1.40;;;0.67;;
8001;SDS011;4046;48.774;8.732;2023-04-01T02:53:22;1.10;;;0.50;;
8001;SDS011;4046;48.774;8.732;2023-04-01T02:55:48;1.10;;;0.60;;
8001;SDS011;4046;48.774;8.732;2023-04-01T02:58:16;1.13;;;0.70;;
8001;SDS011;4046;48.774;8.732;2023-04-01T03:00:42;1.10;;;0.60;;
8001;SDS011;4046;48.774;8.732;2023-04-01T03:03:12;1.10;;;0.60;;
8001;SDS011;4046;48.774;8.732;2023-04-01T03:05:39;1.20;;;0.60;;
8001;SDS011;4046;48.774;8.732;2023-04-01T03:08:05;1.20;;;0.60;;
8001;SDS011;4046;48.774;8.732;2023-04-01T03:10:32;1.10;;;0.60;;
8001;SDS011;4046;48.774;8.732;2023-04-01T03:12:58;1.20;;;0.60;;
8001;SDS011;4046;48.774;8.732;2023-04-01T03:15:24;1.10;;;0.53;;
8001;SDS011;4046;48.774;8.732;2023-04-01T03:17:50;1.13;;;0.67;;
8001;SDS011;4046;48.774;8.732;2023-04-01T03:20:17;1.30;;;0.70;;
8001;SDS011;4046;48.774;8.732;2023-04-01T03:22:43;2.33;;;0.90;;
8001;SDS011;4046;48.774;8.732;2023-04-01T03:25:09;1.20;;;0.70;;
8001;SDS011;4046;48.774;8.732;2023-04-01T03:27:36;1.10;;;0.57;;
8001;SDS011;4046;48.774;8.732;2023-04-01T03:30:03;1.10;;;0.50;;
8001;SDS011;4046;48.774;8.732;2023-04-01T03:32:30;1.10;;;0.60;;
8001;SDS011;4046;48.774;8.732;2023-04-01T03:34:56;1.20;;;0.60;;
8001;SDS011;4046;48.774;8.732;2023-04-01T03:37:23;1.13;;;0.70;;
8001;SDS011;4046;48.774;8.732;2023-04-01T03:39:50;1.07;;;0.50;;
8001;SDS011;4046;48.774;8.732;2023-04-01T03:42:16;1.20;;;0.70;;
8001;SDS011;4046;48.774;8.732;2023-04-01T03:44:43;1.30;;;0.50;;
8001;SDS011;4046;48.774;8.732;2023-04-01T03:47:09;1.10;;;0.70;;
8001;SDS011;4046;48.774;8.732;2023-04-01T03:49:35;1.10;;;0.60;;
8001;SDS011;4046;48.774;8.732;2023-04-01T03:52:01;1.10;;;0.60;;
8001;SDS011;4046;48.774;8.732;2023-04-01T03:54:28;1.10;;;0.50;;
8001;SDS011;4046;48.774;8.732;2023-04-01T03:56:54;1.10;;;0.50;;
8001;SDS011;4046;48.774;8.732;2023-04-01T03:59:20;3.07;;;0.60;;
8001;SDS011;4046;48.774;8.732;2023-04-01T04:01:47;1.40;;;0.60;;
8001;SDS011;4046;48.774;8.732;2023-04-01T04:04:13;1.20;;;0.60;;
8001;SDS011;4046;48.774;8.732;2023-04-01T04:06:40;1.20;;;0.70;;
8001;SDS011;4046;48.774;8.732;2023-04-01T04:09:06;1.10;;;0.60;;
8001;SDS011;4046;48.774;8.732;2023-04-01T04:11:32;1.07;;;0.60;;
8001;SDS011;4046;48.774;8.732;2023-04-01T04:13:59;1.40;;;0.60;;
8001;SDS011;4046;48.774;8.732;2023-04-01T04:16:25;1.50;;;0.60;;
8001;SDS011;4046;48.774;8.732;2023-04-01T04:18:51;1.20;;;0.60;;
8001;SDS011;4046;48.774;8.732;2023-04-01T04:21:17;1.10;;;0.53;;
8001;SDS011;4046;48.774;8.732;2023-04-01T04:23:44;1.23;;;0.70;;
8001;SDS011;4046;48.774;8.732;2023-04-01T04:26:11;1.10;;;0.50;;
8001;SDS011;4046;48.774;8.732;2023-04-01T04:28:40;1.20;;;0.70;;
8001;SDS011;4046;48.774;8.732;2023-04-01T04:31:06;1.03;;;0.50;;
8001;SDS011;4046;48.774;8.732;2023-04-01T04:33:33;1.10;;;0.50;;
8001;SDS011;4046;48.774;8.732;2023-04-01T04:36:00;1.30;;;0.60;;
8001;SDS011;4046;48.774;8.732;2023-04-01T04:38:28;1.10;;;0.60;;
8001;SDS011;4046;48.774;8.732;2023-04-01T04:40:54;1.10;;;0.50;;
8001;SDS011;4046;48.774;8.732;2023-04-01T04:43:20;1.10;;;0.50;;
8001;SDS011;4046;48.774;8.732;2023-04-01T04:45:47;1.60;;;0.50;;
8001;SDS011;4046;48.774;8.732;2023-04-01T04:48:14;1.10;;;0.60;;
8001;SDS011;4046;48.774;8.732;2023-04-01T04:50:47;1.10;;;0.50;;
8001;SDS011;4046;48.774;8.732;2023-04-01T04:53:16;1.10;;;0.50;;
8001;SDS011;4046;48.774;8.732;2023-04-01T04:55:44;1.10;;;0.60;;
8001;SDS011;4046;48.774;8.732;2023-04-01T04:58:11;1.10;;;0.50;;
8001;SDS011;4046;48.774;8.732;2023-04-01T05:00:38;1.10;;;0.50;;
8001;SDS011;4046;48.774;8.732;2023-04-01T05:03:04;1.23;;;0.70;;
8001;SDS011;4046;48.774;8.732;2023-04-01T05:05:30;1.10;;;0.50;;
8001;SDS011;4046;48.774;8.732;2023-04-01T05:07:56;1.10;;;0.50;;
8001;SDS011;4046;48.774;8.732;2023-04-01T05:10:23;1.10;;;0.57;;
8001;SDS011;4046;48.774;8.732;2023-04-01T05:12:49;1.10;;;0.60;;
8001;SDS011;4046;48.774;8.732;2023-04-01T05:15:15;1.10;;;0.60;;
8001;SDS011;4046;48.774;8.732;2023-04-01T05:17:41;1.20;;;0.50;;
8001;SDS011;4046;48.774;8.732;2023-04-01T05:20:08;1.10;;;0.50;;
8001;SDS011;4046;48.774;8.732;2023-04-01T05:22:34;1.20;;;0.60;;
8001;SDS011;4046;48.774;8.732;2023-04-01T05:25:00;1.17;;;0.60;;
8001;SDS011;4046;48.774;8.732;2023-04-01T05:27:26;1.20;;;0.50;;
8001;SDS011;4046;48.774;8.732;2023-04-01T05:29:53;1.10;;;0.50;;
8001;SDS011;4046;48.774;8.732;2023-04-01T05:32:19;1.10;;;0.50;;
8001;SDS011;4046;48.774;8.732;2023-04-01T05:34:45;1.10;;;0.60;;
8001;SDS011;4046;48.774;8.732;2023-04-01T05:37:11;1.20;;;0.57;;
8001;SDS011;4046;48.774;8.732;2023-04-01T05:39:38;1.10;;;0.60;;
8001;SDS011;4046;48.774;8.732;2023-04-01T05:42:07;1.10;;;0.50;;
8001;SDS011;4046;48.774;8.732;2023-04-01T05:44:34;1.13;;;0.60;;
8001;SDS011;4046;48.774;8.732;2023-04-01T05:47:02;1.10;;;0.50;;
8001;SDS011;4046;48.774;8.732;2023-04-01T05:49:29;1.10;;;0.60;;
8001;SDS011;4046;48.774;8.732;2023-04-01T05:51:55;1.00;;;0.50;;
8001;SDS011;4046;48.774;8.732;2023-04-01T05:54:22;1.10;;;0.50;;
8001;SDS011;4046;48.774;8.732;2023-04-01T05:56:48;1.10;;;0.50;;
8001;SDS011;4046;48.774;8.732;2023-04-01T05:59:15;1.00;;;0.50;;
8001;SDS011;4046;48.774;8.732;2023-04-01T06:01:42;1.10;;;0.60;;
8001;SDS011;4046;48.774;8.732;2023-04-01T06:04:15;1.10;;;0.53;;
8001;SDS011;4046;48.774;8.732;2023-04-01T06:06:42;1.10;;;0.50;;
8001;SDS011;4046;48.774;8.732;2023-04-01T06:09:13;1.10;;;0.60;;
8001;SDS011;4046;48.774;8.732;2023-04-01T06:26:16;1.20;;;0.70;;
8001;SDS011;4046;48.774;8.732;2023-04-01T06:34:31;1.10;;;0.60;;
8001;SDS011;4046;48.774;8.732;2023-04-01T06:37:38;1.10;;;0.50;;
8001;SDS011;4046;48.774;8.732;2023-04-01T06:43:27;1.20;;;0.60;;
8001;SDS011;4046;48.774;8.732;2023-04-01T06:46:22;1.10;;;0.50;;
8001;SDS011;4046;48.774;8.732;2023-04-01T06:49:24;1.00;;;0.50;;
8001;SDS011;4046;48.774;8.732;2023-04-01T06:52:17;1.10;;;0.50;;
8001;SDS011;4046;48.774;8.732;2023-04-01T06:54:53;1.23;;;0.50;;
8001;SDS011;4046;48.774;8.732;2023-04-01T06:57:46;1.03;;;0.50;;
8001;SDS011;4046;48.774;8.732;2023-04-01T07:03:33;1.03;;;0.50;;
8001;SDS011;4046;48.774;8.732;2023-04-01T07:06:09;1.10;;;0.53;;
8001;SDS011;4046;48.774;8.732;2023-04-01T07:08:40;1.30;;;0.50;;
8001;SDS011;4046;48.774;8.732;2023-04-01T07:11:10;1.10;;;0.50;;
8001;SDS011;4046;48.774;8.732;2023-04-01T07:13:45;1.00;;;0.50;;
8001;SDS011;4046;48.774;8.732;2023-04-01T07:18:54;1.10;;;0.50;;
8001;SDS011;4046;48.774;8.732;2023-04-01T07:21:34;1.10;;;0.50;;
8001;SDS011;4046;48.774;8.732;2023-04-01T07:24:19;1.10;;;0.60;;
8001;SDS011;4046;48.774;8.732;2023-04-01T07:26:49;1.13;;;0.50;;
8001;SDS011;4046;48.774;8.732;2023-04-01T07:29:22;1.10;;;0.50;;
8001;SDS011;4046;48.774;8.732;2023-04-01T07:32:01;1.03;;;0.50;;
8001;SDS011;4046;48.774;8.732;2023-04-01T07:39:57;1.10;;;0.50;;
8001;SDS011;4046;48.774;8.732;2023-04-01T07:42:40;1.10;;;0.60;;
8001;SDS011;4046;48.774;8.732;2023-04-01T07:50:59;1.10;;;0.50;;
8001;SDS011;4046;48.774;8.732;2023-04-01T07:53:40;1.10;;;0.50;;
8001;SDS011;4046;48.774;8.732;2023-04-01T07:56:23;1.20;;;0.60;;
8001;SDS011;4046;48.774;8.732;2023-04-01T08:06:43;1.10;;;0.53;;
8001;SDS011;4046;48.774;8.732;2023-04-01T08:09:14;1.10;;;0.60;;
8001;SDS011;4046;48.774;8.732;2023-04-01T08:20:16;1.07;;;0.50;;
8001;SDS011;4046;48.774;8.732;2023-04-01T08:23:05;1.10;;;0.50;;
8001;SDS011;4046;48.774;8.732;2023-04-01T08:25:39;1.27;;;0.70;;
8001;SDS011;4046;48.774;8.732;2023-04-01T08:28:13;1.10;;;0.60;;
8001;SDS011;4046;48.774;8.732;2023-04-01T08:30:56;1.20;;;0.60;;
8001;SDS011;4046;48.774;8.732;2023-04-01T08:33:29;1.10;;;0.60;;
8001;SDS011;4046;48.774;8.732;2023-04-01T08:39:41;1.10;;;0.50;;
8001;SDS011;4046;48.774;8.732;2023-04-01T08:42:07;1.10;;;0.50;;
8001;SDS011;4046;48.774;8.732;2023-04-01T08:45:26;1.20;;;0.60;;
8001;SDS011;4046;48.774;8.732;2023-04-01T08:48:20;1.10;;;0.57;;
8001;SDS011;4046;48.774;8.732;2023-04-01T08:59:41;1.10;;;0.50;;
8001;SDS011;4046;48.774;8.732;2023-04-01T09:10:19;1.10;;;0.50;;
8001;SDS011;4046;48.774;8.732;2023-04-01T09:21:12;22.93;;;1.17;;
8001;SDS011;4046;48.774;8.732;2023-04-01T09:24:16;9.07;;;1.60;;
8001;SDS011;4046;48.774;8.732;2023-04-01T09:27:17;3.00;;;0.97;;
8001;SDS011;4046;48.774;8.732;2023-04-01T09:30:01;2.43;;;0.70;;
8001;SDS011;4046;48.774;8.732;2023-04-01T09:32:53;2.07;;;0.90;;
8001;SDS011;4046;48.774;8.732;2023-04-01T09:35:45;3.57;;;0.60;;
8001;SDS011;4046;48.774;8.732;2023-04-01T09:38:28;1.80;;;0.70;;
8001;SDS011;4046;48.774;8.732;2023-04-01T09:49:19;3.67;;;0.90;;
8001;SDS011;4046;48.774;8.732;2023-04-01T09:52:22;1.63;;;0.60;;
8001;SDS011;4046;48.774;8.732;2023-04-01T09:55:02;1.13;;;0.60;;
8001;SDS011;4046;48.774;8.732;2023-04-01T10:17:48;1.33;;;0.70;;
8001;SDS011;4046;48.774;8.732;2023-04-01T10:26:09;2.17;;;0.60;;
8001;SDS011;4046;48.774;8.732;2023-04-01T10:29:02;1.10;;;0.60;;
8001;SDS011;4046;48.774;8.732;2023-04-01T10:39:35;1.10;;;0.50;;
8001;SDS011;4046;48.774;8.732;2023-04-01T10:48:50;2.70;;;0.67;;
8001;SDS011;4046;48.774;8.732;2023-04-01T10:51:52;1.20;;;0.53;;
8001;SDS011;4046;48.774;8.732;2023-04-01T10:54:49;1.10;;;0.50;;
8001;SDS011;4046;48.774;8.732;2023-04-01T10:57:48;1.30;;;0.63;;
8001;SDS011;4046;48.774;8.732;2023-04-01T11:15:37;1.10;;;0.53;;
8001;SDS011;4046;48.774;8.732;2023-04-01T11:18:35;1.10;;;0.50;;
8001;SDS011;4046;48.774;8.732;2023-04-01T11:24:20;1.20;;;0.60;;
8001;SDS011;4046;48.774;8.732;2023-04-01T11:29:53;1.00;;;0.50;;
8001;SDS011;4046;48.774;8.732;2023-04-01T11:33:04;1.10;;;0.50;;
8001;SDS011;4046;48.774;8.732;2023-04-01T11:35:55;1.10;;;0.50;;
8001;SDS011;4046;48.774;8.732;2023-04-01T11:41:50;1.20;;;0.50;;
8001;SDS011;4046;48.774;8.732;2023-04-01T11:44:43;1.20;;;0.50;;
8001;SDS011;4046;48.774;8.732;2023-04-01T11:55:54;1.10;;;0.50;;
8001;SDS011;4046;48.774;8.732;2023-04-01T12:14:30;1.00;;;0.50;;
8001;SDS011;4046;48.774;8.732;2023-04-01T12:17:10;1.00;;;0.40;;
8001;SDS011;4046;48.774;8.732;2023-04-01T12:19:54;1.10;;;0.60;;
8001;SDS011;4046;48.774;8.732;2023-04-01T12:28:29;1.00;;;0.50;;
8001;SDS011;4046;48.774;8.732;2023-04-01T12:31:01;1.10;;;0.60;;
8001;SDS011;4046;48.774;8.732;2023-04-01T12:33:54;1.20;;;0.50;;
8001;SDS011;4046;48.774;8.732;2023-04-01T12:39:51;1.00;;;0.50;;
8001;SDS011;4046;48.774;8.732;2023-04-01T12:45:23;1.40;;;0.50;;
8001;SDS011;4046;48.774;8.732;2023-04-01T12:53:27;1.03;;;0.50;;
8001;SDS011;4046;48.774;8.732;2023-04-01T12:59:42;1.10;;;0.50;;
8001;SDS011;4046;48.774;8.732;2023-04-01T13:02:00;1.20;;;0.53;;
8001;SDS011;4046;48.774;8.732;2023-04-01T13:07:15;1.00;;;0.50;;
8001;SDS011;4046;48.774;8.732;2023-04-01T13:24:40;1.10;;;0.50;;
8001;SDS011;4046;48.774;8.732;2023-04-01T13:27:50;1.00;;;0.50;;
8001;SDS011;4046;48.774;8.732;2023-04-01T13:35:42;1.00;;;0.50;;
8001;SDS011;4046;48.774;8.732;2023-04-01T13:41:01;1.00;;;0.50;;
8001;SDS011;4046;48.774;8.732;2023-04-01T13:43:50;1.10;;;0.50;;
8001;SDS011;4046;48.774;8.732;2023-04-01T13:55:34;1.10;;;0.50;;
8001;SDS011;4046;48.774;8.732;2023-04-01T13:58:20;1.07;;;0.57;;
8001;SDS011;4046;48.774;8.732;2023-04-01T14:09:25;1.10;;;0.50;;
8001;SDS011;4046;48.774;8.732;2023-04-01T14:20:27;1.03;;;0.50;;
8001;SDS011;4046;48.774;8.732;2023-04-01T14:23:04;1.00;;;0.50;;
8001;SDS011;4046;48.774;8.732;2023-04-01T14:25:46;1.00;;;0.50;;
8001;SDS011;4046;48.774;8.732;2023-04-01T14:28:41;1.00;;;0.50;;
8001;SDS011;4046;48.774;8.732;2023-04-01T14:36:43;1.00;;;0.50;;
8001;SDS011;4046;48.774;8.732;2023-04-01T14:42:18;1.00;;;0.50;;
8001;SDS011;4046;48.774;8.732;2023-04-01T14:45:40;1.10;;;0.50;;
8001;SDS011;4046;48.774;8.732;2023-04-01T14:47:53;1.10;;;0.53;;
8001;SDS011;4046;48.774;8.732;2023-04-01T14:50:49;1.03;;;0.50;;
8001;SDS011;4046;48.774;8.732;2023-04-01T14:53:26;1.00;;;0.50;;
8001;SDS011;4046;48.774;8.732;2023-04-01T14:55:58;1.00;;;0.50;;
8001;SDS011;4046;48.774;8.732;2023-04-01T14:58:49;1.10;;;0.50;;
8001;SDS011;4046;48.774;8.732;2023-04-01T15:09:50;1.00;;;0.40;;
8001;SDS011;4046;48.774;8.732;2023-04-01T15:12:47;1.00;;;0.50;;
8001;SDS011;4046;48.774;8.732;2023-04-01T15:15:19;1.10;;;0.50;;
8001;SDS011;4046;48.774;8.732;2023-04-01T15:20:45;1.03;;;0.50;;
8001;SDS011;4046;48.774;8.732;2023-04-01T15:29:00;1.00;;;0.50;;
8001;SDS011;4046;48.774;8.732;2023-04-01T15:31:42;1.00;;;0.40;;
8001;SDS011;4046;48.774;8.732;2023-04-01T15:37:00;1.00;;;0.50;;
8001;SDS011;4046;48.774;8.732;2023-04-01T15:39:46;1.10;;;0.50;;
8001;SDS011;4046;48.774;8.732;2023-04-01T15:42:27;1.10;;;0.50;;
8001;SDS011;4046;48.774;8.732;2023-04-01T15:45:31;1.10;;;0.60;;
8001;SDS011;4046;48.774;8.732;2023-04-01T15:50:54;1.00;;;0.50;;
8001;SDS011;4046;48.774;8.732;2023-04-01T15:56:44;1.20;;;0.50;;
8001;SDS011;4046;48.774;8.732;2023-04-01T16:02:21;1.10;;;0.50;;
8001;SDS011;4046;48.774;8.732;2023-04-01T16:08:02;1.10;;;0.60;;
8001;SDS011;4046;48.774;8.732;2023-04-01T16:10:38;1.10;;;0.53;;
8001;SDS011;4046;48.774;8.732;2023-04-01T16:16:22;1.00;;;0.50;;
8001;SDS011;4046;48.774;8.732;2023-04-01T16:22:05;1.10;;;0.50;;
8001;SDS011;4046;48.774;8.732;2023-04-01T16:30:04;1.10;;;0.50;;
8001;SDS011;4046;48.774;8.732;2023-04-01T16:32:51;1.10;;;0.60;;
8001;SDS011;4046;48.774;8.732;2023-04-01T16:35:39;1.00;;;0.50;;
8001;SDS011;4046;48.774;8.732;2023-04-01T16:38:22;1.10;;;0.60;;
8001;SDS011;4046;48.774;8.732;2023-04-01T16:46:52;1.50;;;0.70;;
8001;SDS011;4046;48.774;8.732;2023-04-01T16:49:27;1.30;;;0.60;;
8001;SDS011;4046;48.774;8.732;2023-04-01T17:05:52;1.10;;;0.50;;
8001;SDS011;4046;48.774;8.732;2023-04-01T17:08:47;1.10;;;0.60;;
8001;SDS011;4046;48.774;8.732;2023-04-01T17:11:52;4.03;;;1.00;;
8001;SDS011;4046;48.774;8.732;2023-04-01T17:20:12;1.10;;;0.60;;
8001;SDS011;4046;48.774;8.732;2023-04-01T17:28:03;1.10;;;0.60;;
8001;SDS011;4046;48.774;8.732;2023-04-01T17:31:02;1.10;;;0.63;;
8001;SDS011;4046;48.774;8.732;2023-04-01T17:39:19;1.10;;;0.50;;
8001;SDS011;4046;48.774;8.732;2023-04-01T17:41:50;1.10;;;0.53;;
8001;SDS011;4046;48.774;8.732;2023-04-01T17:44:34;1.10;;;0.60;;
8001;SDS011;4046;48.774;8.732;2023-04-01T17:52:36;1.10;;;0.60;;
8001;SDS011;4046;48.774;8.732;2023-04-01T17:58:34;1.10;;;0.57;;
8001;SDS011;4046;48.774;8.732;2023-04-01T18:15:50;1.10;;;0.70;;
8001;SDS011;4046;48.774;8.732;2023-04-01T18:21:48;1.10;;;0.70;;
8001;SDS011;4046;48.774;8.732;2023-04-01T18:24:41;1.30;;;0.60;;
8001;SDS011;4046;48.774;8.732;2023-04-01T18:27:18;1.10;;;0.70;;
8001;SDS011;4046;48.774;8.732;2023-04-01T18:29:59;1.20;;;0.70;;
8001;SDS011;4046;48.774;8.732;2023-04-01T18:32:37;1.13;;;0.63;;
8001;SDS011;4046;48.774;8.732;2023-04-01T18:38:28;1.40;;;0.80;;
8001;SDS011;4046;48.774;8.732;2023-04-01T18:41:10;1.10;;;0.70;;
8001;SDS011;4046;48.774;8.732;2023-04-01T18:43:53;1.10;;;0.60;;
8001;SDS011;4046;48.774;8.732;2023-04-01T18:46:45;1.10;;;0.70;;
8001;SDS011;4046;48.774;8.732;2023-04-01T18:52:27;1.13;;;0.60;;
8001;SDS011;4046;48.774;8.732;2023-04-01T18:57:26;1.10;;;0.70;;
8001;SDS011;4046;48.774;8.732;2023-04-01T19:05:50;1.17;;;0.60;;
8001;SDS011;4046;48.774;8.732;2023-04-01T19:08:26;1.50;;;0.67;;
8001;SDS011;4046;48.774;8.732;2023-04-01T19:21:33;1.40;;;0.70;;
8001;SDS011;4046;48.774;8.732;2023-04-01T19:27:03;1.20;;;0.70;;
8001;SDS011;4046;48.774;8.732;2023-04-01T19:32:43;1.10;;;0.70;;
8001;SDS011;4046;48.774;8.732;2023-04-01T19:35:23;1.20;;;0.70;;
8001;SDS011;4046;48.774;8.732;2023-04-01T19:43:24;1.33;;;0.80;;
8001;SDS011;4046;48.774;8.732;2023-04-01T19:51:48;1.63;;;0.70;;
8001;SDS011;4046;48.774;8.732;2023-04-01T19:57:23;1.20;;;0.80;;
8001;SDS011;4046;48.774;8.732;2023-04-01T19:59:59;1.20;;;0.80;;
8001;SDS011;4046;48.774;8.732;2023-04-01T20:05:44;1.30;;;1.00;;
8001;SDS011;4046;48.774;8.732;2023-04-01T20:08:36;1.20;;;0.80;;
8001;SDS011;4046;48.774;8.732;2023-04-01T20:11:06;1.10;;;0.80;;
8001;SDS011;4046;48.774;8.732;2023-04-01T20:19:44;1.20;;;0.70;;
8001;SDS011;4046;48.774;8.732;2023-04-01T20:22:27;1.20;;;0.80;;
8001;SDS011;4046;48.774;8.732;2023-04-01T20:27:56;1.20;;;0.80;;
8001;SDS011;4046;48.774;8.732;2023-04-01T20:36:10;1.20;;;0.80;;
8001;SDS011;4046;48.774;8.732;2023-04-01T20:44:22;1.20;;;0.70;;
8001;SDS011;4046;48.774;8.732;2023-04-01T20:47:16;1.60;;;0.90;;
8001;SDS011;4046;48.774;8.732;2023-04-01T21:01:08;1.10;;;0.70;;
8001;SDS011;4046;48.774;8.732;2023-04-01T21:04:13;1.20;;;0.90;;
8001;SDS011;4046;48.774;8.732;2023-04-01T21:06:59;1.20;;;0.90;;
8001;SDS011;4046;48.774;8.732;2023-04-01T21:09:51;1.17;;;0.87;;
8001;SDS011;4046;48.774;8.732;2023-04-01T21:12:34;1.20;;;0.80;;
8001;SDS011;4046;48.774;8.732;2023-04-01T21:21:10;1.20;;;0.80;;
8001;SDS011;4046;48.774;8.732;2023-04-01T21:32:11;1.20;;;0.90;;
8001;SDS011;4046;48.774;8.732;2023-04-01T21:35:00;1.10;;;0.80;;
8001;SDS011;4046;48.774;8.732;2023-04-01T21:41:29;1.10;;;0.70;;
8001;SDS011;4046;48.774;8.732;2023-04-01T21:47:08;1.17;;;0.80;;
8001;SDS011;4046;48.774;8.732;2023-04-01T21:55:39;1.20;;;0.80;;
8001;SDS011;4046;48.774;8.732;2023-04-01T22:01:24;1.17;;;0.80;;
8001;SDS011;4046;48.774;8.732;2023-04-01T22:04:47;1.40;;;0.90;;
8001;SDS011;4046;48.774;8.732;2023-04-01T22:12:35;1.20;;;0.80;;
8001;SDS011;4046;48.774;8.732;2023-04-01T22:17:45;1.20;;;0.70;;
8001;SDS011;4046;48.774;8.732;2023-04-01T22:25:55;1.23;;;0.80;;
8001;SDS011;4046;48.774;8.732;2023-04-01T22:31:22;1.20;;;0.70;;
8001;SDS011;4046;48.774;8.732;2023-04-01T22:34:16;1.40;;;0.90;;
8001;SDS011;4046;48.774;8.732;2023-04-01T22:37:06;1.20;;;0.90;;
8001;SDS011;4046;48.774;8.732;2023-04-01T22:39:53;1.30;;;0.90;;
8001;SDS011;4046;48.774;8.732;2023-04-01T22:42:43;1.10;;;0.73;;
8001;SDS011;4046;48.774;8.732;2023-04-01T22:53:01;1.20;;;1.00;;
8001;SDS011;4046;48.774;8.732;2023-04-01T22:55:43;1.70;;;0.80;;
8001;SDS011;4046;48.774;8.732;2023-04-01T22:58:16;1.20;;;0.90;;
8001;SDS011;4046;48.774;8.732;2023-04-01T23:00:48;1.33;;;0.80;;
8001;SDS011;4046;48.774;8.732;2023-04-01T23:03:24;1.20;;;0.80;;
8001;SDS011;4046;48.774;8.732;2023-04-01T23:05:58;1.20;;;0.80;;
8001;SDS011;4046;48.774;8.732;2023-04-01T23:11:18;1.30;;;0.90;;
8001;SDS011;4046;48.774;8.732;2023-04-01T23:14:34;1.17;;;0.77;;
8001;SDS011;4046;48.774;8.732;2023-04-01T23:27:25;1.10;;;0.70;;
8001;SDS011;4046;48.774;8.732;2023-04-01T23:29:57;1.30;;;0.90;;
8001;SDS011;4046;48.774;8.732;2023-04-01T23:32:23;1.17;;;0.77;;
8001;SDS011;4046;48.774;8.732;2023-04-01T23:34:52;1.10;;;0.70;;
8001;SDS011;4046;48.774;8.732;2023-04-01T23:37:22;1.90;;;1.03;;
8001;SDS011;4046;48.774;8.732;2023-04-01T23:39:53;1.20;;;0.80;;
8001;SDS011;4046;48.774;8.732;2023-04-01T23:42:22;1.10;;;0.70;;
8001;SDS011;4046;48.774;8.732;2023-04-01T23:44:58;1.10;;;0.73;;
8001;SDS011;4046;48.774;8.732;2023-04-01T23:50:04;1.20;;;0.80;;
8001;SDS011;4046;48.774;8.732;2023-04-01T23:52:39;1.23;;;0.80;;
8001;SDS011;4046;48.774;8.732;2023-04-01T23:57:35;1.10;;;0.70;;
